Time;durP1;ratioP1;P1;durP2;ratioP2;P2;SDS_P1;SDS_P2;PMS_P1;PMS_P2;Temp;Humidity;BMP_temperature;BMP_pressure;BME280_temperature;BME280_humidity;BME280_pressure;Samples;Min_cycle;Max_cycle;Signal;HPM_P1;HPM_P2
2022/05/29 00:01:35;;;;;;;1.50;0.90;;;15.00;97.60;;;;;;5083402;28;20675;-62
2022/05/29 00:04:02;;;;;;;0.90;0.90;;;15.00;97.70;;;;;;5068266;28;20216;-62
2022/05/29 00:06:30;;;;;;;2.60;1.27;;;15.00;97.70;;;;;;5069244;28;20571;-63
2022/05/29 00:08:58;;;;;;;1.27;0.70;;;15.00;97.70;;;;;;5070430;28;20197;-63
2022/05/29 00:11:26;;;;;;;0.70;0.70;;;15.00;97.70;;;;;;5069160;28;20227;-62
2022/05/29 00:14:00;;;;;;;0.87;0.83;;;15.00;97.70;;;;;;5068801;28;20275;-63
2022/05/29 00:16:28;;;;;;;1.23;1.00;;;15.00;97.80;;;;;;5069700;28;20765;-63
2022/05/29 00:18:55;;;;;;;1.30;0.70;;;15.00;97.80;;;;;;5067124;28;20836;-63
2022/05/29 00:21:22;;;;;;;0.80;0.80;;;15.00;97.80;;;;;;5069229;28;20671;-63
2022/05/29 00:23:50;;;;;;;0.70;0.70;;;15.00;97.80;;;;;;5070159;28;20200;-61
2022/05/29 00:26:17;;;;;;;0.70;0.70;;;15.00;97.90;;;;;;5069137;28;20201;-63
2022/05/29 00:28:45;;;;;;;0.63;0.60;;;14.90;97.90;;;;;;5071690;28;20279;-63
2022/05/29 00:31:14;;;;;;;0.70;0.70;;;14.90;98.00;;;;;;5068396;28;20205;-63
2022/05/29 00:33:42;;;;;;;0.80;0.80;;;14.90;98.00;;;;;;5083556;28;20197;-63
2022/05/29 00:36:11;;;;;;;0.57;0.57;;;14.90;98.00;;;;;;5059775;28;20496;-63
2022/05/29 00:38:41;;;;;;;0.57;0.57;;;14.90;98.00;;;;;;5069604;28;20201;-63
2022/05/29 00:41:17;;;;;;;0.70;0.70;;;14.90;98.10;;;;;;5063773;28;20553;-64
2022/05/29 00:43:44;;;;;;;0.60;0.60;;;14.90;98.10;;;;;;5075939;28;20537;-64
2022/05/29 00:46:13;;;;;;;1.13;0.77;;;14.90;98.20;;;;;;5069641;28;20193;-64
2022/05/29 00:48:40;;;;;;;0.60;0.60;;;14.90;98.20;;;;;;5057438;28;20522;-64
2022/05/29 00:51:11;;;;;;;0.70;0.70;;;14.90;98.20;;;;;;5067956;28;20204;-63
2022/05/29 00:53:39;;;;;;;0.53;0.53;;;14.90;98.10;;;;;;5070350;28;20288;-63
2022/05/29 00:56:10;;;;;;;0.70;0.70;;;14.90;98.20;;;;;;5071749;28;20269;-62
2022/05/29 00:58:37;;;;;;;1.10;1.00;;;14.90;98.20;;;;;;5072860;28;20201;-63
2022/05/29 01:01:04;;;;;;;0.60;0.60;;;14.90;98.20;;;;;;5060143;28;20289;-62
2022/05/29 01:03:33;;;;;;;1.70;0.70;;;14.90;98.30;;;;;;5068073;28;20294;-62
2022/05/29 01:06:00;;;;;;;0.73;0.70;;;14.90;98.30;;;;;;5068948;28;20278;-63
2022/05/29 01:08:30;;;;;;;0.80;0.77;;;14.90;98.30;;;;;;5067255;28;20211;-63
2022/05/29 01:11:23;;;;;;;1.97;0.90;;;14.90;98.30;;;;;;5067744;28;20197;-63
2022/05/29 01:14:03;;;;;;;0.63;0.60;;;14.90;98.30;;;;;;5065282;28;20208;-63
2022/05/29 01:16:41;;;;;;;0.70;0.70;;;14.90;98.30;;;;;;5061944;28;20308;-64
2022/05/29 01:19:37;;;;;;;0.70;0.70;;;15.00;98.30;;;;;;5069038;28;20220;-64
2022/05/29 01:22:26;;;;;;;1.07;0.97;;;14.90;98.30;;;;;;5068059;28;20300;-64
2022/05/29 01:25:29;;;;;;;0.60;0.60;;;15.00;98.40;;;;;;5080458;28;20227;-64
2022/05/29 01:28:14;;;;;;;0.77;0.73;;;15.00;98.50;;;;;;5054821;28;20226;-63
2022/05/29 01:30:47;;;;;;;1.53;0.97;;;14.90;98.40;;;;;;5070822;28;20181;-63
2022/05/29 01:33:23;;;;;;;0.80;0.80;;;14.90;98.60;;;;;;5079833;28;20220;-63
2022/05/29 01:35:56;;;;;;;1.10;0.77;;;14.90;98.60;;;;;;5067836;28;20666;-62
2022/05/29 01:38:30;;;;;;;1.03;0.93;;;14.90;98.70;;;;;;5077508;28;20220;-62
2022/05/29 01:41:01;;;;;;;0.63;0.63;;;14.90;98.70;;;;;;5067135;28;20191;-63
2022/05/29 01:43:38;;;;;;;2.00;0.57;;;15.00;98.80;;;;;;5071005;28;20274;-62
2022/05/29 01:46:08;;;;;;;1.60;0.70;;;14.90;98.80;;;;;;5088941;28;20209;-62
2022/05/29 01:48:42;;;;;;;0.60;0.60;;;14.90;99.00;;;;;;5063210;28;20253;-63
2022/05/29 01:51:14;;;;;;;0.83;0.60;;;15.00;99.00;;;;;;5070135;28;20246;-62
2022/05/29 01:53:44;;;;;;;0.93;0.83;;;14.90;99.10;;;;;;5066042;28;20243;-62
2022/05/29 01:56:25;;;;;;;0.73;0.57;;;15.00;99.10;;;;;;5061881;28;20204;-62
2022/05/29 01:59:00;;;;;;;0.60;0.60;;;14.90;99.10;;;;;;5066848;28;20554;-63
2022/05/29 02:01:31;;;;;;;2.17;0.70;;;14.90;99.50;;;;;;5064455;28;20668;-63
2022/05/29 02:04:04;;;;;;;0.50;0.50;;;14.90;99.30;;;;;;5064700;28;20748;-63
2022/05/29 02:09:20;;;;;;;0.70;0.70;;;14.90;99.40;;;;;;5064145;28;20259;-63
2022/05/29 02:11:50;;;;;;;0.63;0.63;;;14.90;99.50;;;;;;5064664;28;20199;-63
2022/05/29 02:14:21;;;;;;;0.50;0.50;;;14.90;99.60;;;;;;5068218;28;20207;-62
2022/05/29 02:16:53;;;;;;;1.50;0.70;;;14.90;99.70;;;;;;5068142;28;20529;-63
2022/05/29 02:19:25;;;;;;;0.70;0.70;;;14.90;99.70;;;;;;5063183;28;20609;-64
2022/05/29 02:21:57;;;;;;;0.60;0.60;;;14.90;99.70;;;;;;5066131;28;20203;-63
2022/05/29 02:24:30;;;;;;;0.70;0.70;;;14.90;99.70;;;;;;5066524;28;20258;-63
2022/05/29 02:27:03;;;;;;;0.60;0.60;;;14.90;99.70;;;;;;5067372;28;20192;-63
2022/05/29 02:29:32;;;;;;;0.53;0.53;;;14.90;99.70;;;;;;5066894;28;20292;-63
2022/05/29 02:32:05;;;;;;;0.67;0.67;;;14.90;99.70;;;;;;5067370;28;20673;-63
2022/05/29 02:34:41;;;;;;;0.63;0.63;;;14.90;99.80;;;;;;5067740;28;20193;-63
2022/05/29 02:37:16;;;;;;;0.63;0.63;;;14.90;99.80;;;;;;5059405;28;20211;-63
2022/05/29 02:39:54;;;;;;;0.50;0.50;;;14.90;99.80;;;;;;5065699;28;20211;-63
2022/05/29 02:42:28;;;;;;;1.00;0.60;;;14.90;99.80;;;;;;5059344;28;20268;-63
2022/05/29 02:45:05;;;;;;;0.63;0.50;;;14.90;99.80;;;;;;5073699;28;20195;-64
2022/05/29 02:47:40;;;;;;;0.83;0.80;;;14.90;99.80;;;;;;5068494;28;20237;-62
2022/05/29 02:50:32;;;;;;;0.80;0.70;;;14.90;99.80;;;;;;5068076;28;20207;-63
2022/05/29 02:53:06;;;;;;;0.40;0.40;;;14.90;99.70;;;;;;5081245;28;20653;-62
2022/05/29 02:55:33;;;;;;;0.60;0.60;;;14.90;99.70;;;;;;5065970;28;20722;-62
2022/05/29 02:58:04;;;;;;;0.60;0.60;;;14.90;99.70;;;;;;5068772;28;20358;-62
2022/05/29 03:00:43;;;;;;;0.50;0.50;;;14.90;99.70;;;;;;5066749;28;20511;-63
2022/05/29 03:03:22;;;;;;;0.70;0.70;;;14.90;99.80;;;;;;5068099;28;20199;-63
2022/05/29 03:05:57;;;;;;;0.67;0.60;;;14.90;99.70;;;;;;5075509;28;20208;-62
2022/05/29 03:08:41;;;;;;;0.60;0.60;;;14.90;99.70;;;;;;5071977;28;20196;-64
2022/05/29 03:11:13;;;;;;;0.53;0.53;;;14.90;99.70;;;;;;5068749;28;20209;-63
2022/05/29 03:13:52;;;;;;;0.57;0.57;;;14.90;99.70;;;;;;5069861;28;20253;-64
2022/05/29 03:16:31;;;;;;;0.60;0.60;;;14.90;99.80;;;;;;5069612;28;20299;-64
2022/05/29 03:19:05;;;;;;;2.73;0.50;;;14.90;99.80;;;;;;5070523;28;20215;-64
2022/05/29 03:21:41;;;;;;;0.47;0.47;;;14.90;99.80;;;;;;5069741;28;20676;-64
2022/05/29 03:24:19;;;;;;;0.50;0.50;;;14.90;99.80;;;;;;5083202;28;20360;-64
2022/05/29 03:26:53;;;;;;;0.40;0.40;;;14.90;99.70;;;;;;5066732;28;20242;-64
2022/05/29 03:29:25;;;;;;;0.50;0.50;;;15.00;99.80;;;;;;5061307;28;20276;-63
2022/05/29 03:31:55;;;;;;;0.80;0.63;;;15.00;99.80;;;;;;5071136;28;20189;-63
2022/05/29 03:34:22;;;;;;;0.50;0.50;;;15.00;99.80;;;;;;5069169;28;20512;-63
2022/05/29 03:36:52;;;;;;;0.77;0.60;;;14.90;99.80;;;;;;5062523;28;20197;-63
2022/05/29 03:39:20;;;;;;;0.40;0.40;;;15.00;99.90;;;;;;5065854;28;20205;-62
2022/05/29 03:41:49;;;;;;;0.30;0.30;;;15.00;99.90;;;;;;5066877;28;20208;-62
2022/05/29 03:44:18;;;;;;;0.60;0.60;;;15.00;99.90;;;;;;5070878;28;20363;-62
2022/05/29 03:46:45;;;;;;;0.53;0.53;;;15.00;99.90;;;;;;5069651;28;20189;-64
2022/05/29 03:49:16;;;;;;;0.50;0.50;;;15.00;99.90;;;;;;5067144;28;20231;-64
2022/05/29 03:51:44;;;;;;;0.40;0.40;;;15.00;99.90;;;;;;5070643;28;20635;-62
2022/05/29 03:54:12;;;;;;;0.50;0.50;;;15.00;99.90;;;;;;5069667;28;20208;-63
2022/05/29 03:56:39;;;;;;;2.67;0.53;;;15.10;99.90;;;;;;5069609;28;20197;-63
2022/05/29 03:59:07;;;;;;;1.20;0.70;;;15.00;99.90;;;;;;5064848;28;20233;-63
2022/05/29 04:01:35;;;;;;;0.57;0.57;;;15.10;99.90;;;;;;5069001;28;20196;-64
2022/05/29 04:04:02;;;;;;;0.50;0.50;;;15.00;99.90;;;;;;5069299;28;20299;-64
2022/05/29 04:06:34;;;;;;;0.67;0.67;;;15.10;99.90;;;;;;5070581;28;20203;-64
2022/05/29 04:12:05;;;;;;;0.50;0.50;;;15.00;99.90;;;;;;5069405;28;20193;-64
2022/05/29 04:14:33;;;;;;;0.93;0.50;;;15.00;99.90;;;;;;5067971;28;20188;-64
2022/05/29 04:17:01;;;;;;;0.70;0.53;;;15.10;99.90;;;;;;5069575;28;20271;-63
2022/05/29 04:19:29;;;;;;;0.60;0.60;;;15.10;99.90;;;;;;5067335;28;20652;-63
2022/05/29 04:21:58;;;;;;;0.80;0.80;;;15.20;99.90;;;;;;5067565;28;20199;-63
2022/05/29 04:24:25;;;;;;;0.33;0.33;;;15.10;99.90;;;;;;5067940;28;20284;-63
2022/05/29 04:26:52;;;;;;;0.90;0.60;;;15.10;99.90;;;;;;5069144;28;20205;-63
2022/05/29 04:29:21;;;;;;;0.60;0.60;;;15.10;99.90;;;;;;5070115;28;20250;-63
2022/05/29 04:34:33;;;;;;;0.87;0.83;;;15.10;99.90;;;;;;5070173;28;20200;-63
2022/05/29 04:37:02;;;;;;;0.70;0.70;;;15.20;99.90;;;;;;5064577;28;20225;-63
2022/05/29 04:39:32;;;;;;;0.70;0.70;;;15.10;99.90;;;;;;5065903;28;20270;-63
2022/05/29 04:42:01;;;;;;;0.60;0.60;;;15.10;99.90;;;;;;5068527;28;20287;-63
2022/05/29 04:44:30;;;;;;;0.43;0.43;;;15.20;99.90;;;;;;5069988;28;20275;-63
2022/05/29 04:46:58;;;;;;;0.70;0.70;;;15.10;99.90;;;;;;5066298;28;20300;-62
2022/05/29 04:49:26;;;;;;;0.60;0.60;;;15.10;99.90;;;;;;5068446;28;20287;-63
2022/05/29 04:51:53;;;;;;;0.67;0.67;;;15.20;99.90;;;;;;5069804;28;20196;-63
2022/05/29 04:54:21;;;;;;;0.67;0.67;;;15.20;99.90;;;;;;5070540;28;20201;-63
2022/05/29 04:56:49;;;;;;;0.80;0.80;;;15.20;99.90;;;;;;5069070;28;20197;-63
2022/05/29 04:59:17;;;;;;;0.70;0.60;;;15.20;99.90;;;;;;5070494;28;20239;-63
2022/05/29 05:01:44;;;;;;;1.00;0.77;;;15.20;99.90;;;;;;5069876;28;20289;-63
2022/05/29 05:04:30;;;;;;;0.97;0.83;;;15.20;99.90;;;;;;5070382;28;20709;-64
2022/05/29 05:06:58;;;;;;;1.27;0.83;;;15.20;99.90;;;;;;5062143;28;20263;-64
2022/05/29 05:09:27;;;;;;;0.70;0.70;;;15.20;99.90;;;;;;5069933;28;20656;-64
2022/05/29 05:11:56;;;;;;;0.77;0.77;;;15.20;99.90;;;;;;5068109;28;20195;-63
2022/05/29 05:14:25;;;;;;;0.60;0.60;;;15.20;99.90;;;;;;5067181;28;20197;-64
2022/05/29 05:16:54;;;;;;;0.60;0.60;;;15.20;99.90;;;;;;5068704;28;20232;-64
2022/05/29 05:19:21;;;;;;;0.50;0.50;;;15.80;99.90;;;;;;5069807;28;20248;-64
2022/05/29 05:21:50;;;;;;;0.70;0.70;;;15.20;99.90;;;;;;5063651;28;20212;-63
2022/05/29 05:24:17;;;;;;;1.17;0.70;;;15.30;99.90;;;;;;5073605;28;20241;-64
2022/05/29 05:26:46;;;;;;;0.60;0.60;;;15.30;99.90;;;;;;5069540;28;20255;-64
2022/05/29 05:29:14;;;;;;;0.80;0.80;;;15.30;99.90;;;;;;5069159;28;20196;-64
2022/05/29 05:31:41;;;;;;;0.73;0.73;;;15.30;99.90;;;;;;5066739;28;20248;-62
2022/05/29 05:34:08;;;;;;;0.67;0.67;;;15.30;99.90;;;;;;5067599;28;20203;-62
2022/05/29 05:36:35;;;;;;;0.70;0.70;;;15.30;99.90;;;;;;5067277;28;20224;-62
2022/05/29 05:39:03;;;;;;;0.70;0.70;;;15.30;99.90;;;;;;5067081;28;20224;-62
2022/05/29 05:41:30;;;;;;;2.07;0.80;;;15.30;99.90;;;;;;5068898;28;20194;-63
2022/05/29 05:43:59;;;;;;;0.77;0.77;;;15.20;99.90;;;;;;5065947;28;20287;-63
2022/05/29 05:46:26;;;;;;;1.10;0.80;;;15.20;99.90;;;;;;5064599;28;20226;-63
2022/05/29 05:48:53;;;;;;;0.87;0.73;;;15.20;99.90;;;;;;5067729;28;20220;-65
2022/05/29 05:51:20;;;;;;;0.70;0.70;;;15.20;99.90;;;;;;5066009;28;20228;-64
2022/05/29 05:53:47;;;;;;;0.77;0.77;;;15.20;99.90;;;;;;5067509;28;20549;-64
2022/05/29 05:56:16;;;;;;;0.57;0.57;;;15.10;99.90;;;;;;5065902;28;20197;-62
2022/05/29 05:58:44;;;;;;;0.70;0.70;;;15.20;99.90;;;;;;5068586;28;20751;-61
2022/05/29 06:01:15;;;;;;;0.40;0.40;;;15.10;99.90;;;;;;5066038;28;20212;-64
2022/05/29 06:03:43;;;;;;;0.60;0.60;;;15.20;99.90;;;;;;5066389;28;20204;-63
2022/05/29 06:06:10;;;;;;;0.60;0.60;;;15.20;99.90;;;;;;5066879;28;20188;-62
2022/05/29 06:08:38;;;;;;;0.60;0.60;;;15.20;99.90;;;;;;5067976;28;20197;-63
2022/05/29 06:11:05;;;;;;;0.50;0.50;;;15.20;99.90;;;;;;5066049;28;20212;-62
2022/05/29 06:13:32;;;;;;;0.67;0.67;;;15.20;99.90;;;;;;5066708;28;20209;-64
2022/05/29 06:16:00;;;;;;;0.73;0.73;;;15.20;99.90;;;;;;5067087;28;20271;-62
2022/05/29 06:18:29;;;;;;;0.80;0.80;;;15.20;99.90;;;;;;5065731;28;20239;-64
2022/05/29 06:21:01;;;;;;;0.70;0.70;;;15.20;99.90;;;;;;5060825;28;20196;-63
2022/05/29 06:23:29;;;;;;;0.50;0.50;;;15.20;99.90;;;;;;5068170;28;20205;-62
2022/05/29 06:25:56;;;;;;;0.50;0.50;;;15.20;99.90;;;;;;5064905;28;20232;-63
2022/05/29 06:28:23;;;;;;;0.60;0.60;;;15.20;99.90;;;;;;5064336;28;20611;-62
2022/05/29 06:30:50;;;;;;;0.60;0.60;;;15.30;99.90;;;;;;5068135;28;20296;-62
2022/05/29 06:33:17;;;;;;;1.00;0.73;;;15.30;99.90;;;;;;5064375;28;20201;-62
2022/05/29 06:35:46;;;;;;;0.67;0.60;;;15.30;99.90;;;;;;5068080;28;20272;-63
2022/05/29 06:38:13;;;;;;;3.23;0.87;;;15.40;99.90;;;;;;5069539;28;20215;-63
2022/05/29 06:40:42;;;;;;;0.80;0.80;;;15.40;99.90;;;;;;5071394;28;21062;-63
2022/05/29 06:43:11;;;;;;;1.10;1.03;;;15.40;99.90;;;;;;5070786;28;20630;-63
2022/05/29 06:45:38;;;;;;;1.00;1.00;;;15.50;99.90;;;;;;5073666;28;20203;-64
2022/05/29 06:48:06;;;;;;;0.70;0.70;;;15.50;99.90;;;;;;5070205;28;20334;-61
2022/05/29 06:50:33;;;;;;;1.47;0.97;;;15.60;99.90;;;;;;5070196;28;20723;-63
2022/05/29 06:53:02;;;;;;;0.80;0.80;;;15.60;99.90;;;;;;5071150;28;20197;-64
2022/05/29 06:55:29;;;;;;;1.60;1.27;;;15.70;99.90;;;;;;5072308;28;20212;-63
2022/05/29 06:57:56;;;;;;;0.90;0.90;;;15.70;99.90;;;;;;5067293;28;20653;-63
2022/05/29 07:08:42;;;;;;;1.43;1.10;;;15.80;99.90;;;;;;5071319;28;20263;-63
2022/05/29 07:11:12;;;;;;;1.03;1.03;;;15.90;99.90;;;;;;5070533;28;20220;-64
2022/05/29 07:13:40;;;;;;;1.10;1.10;;;15.90;99.90;;;;;;5068582;28;20203;-64
2022/05/29 07:16:07;;;;;;;1.20;1.10;;;15.90;99.90;;;;;;5071702;28;20204;-62
2022/05/29 07:18:34;;;;;;;1.20;1.10;;;15.90;99.90;;;;;;5068398;28;20209;-63
2022/05/29 07:21:02;;;;;;;2.47;1.23;;;16.00;99.90;;;;;;5071274;28;20228;-63
2022/05/29 07:23:29;;;;;;;2.47;0.97;;;16.00;99.90;;;;;;5071640;28;20623;-62
2022/05/29 07:25:58;;;;;;;0.80;0.80;;;16.10;99.90;;;;;;5074679;28;20213;-63
2022/05/29 07:28:26;;;;;;;0.90;0.90;;;16.10;99.90;;;;;;5071245;28;20212;-63
2022/05/29 07:30:54;;;;;;;1.03;1.03;;;16.20;99.90;;;;;;5071528;28;20204;-63
2022/05/29 07:33:22;;;;;;;1.27;1.03;;;16.20;99.90;;;;;;5070322;28;20564;-63
2022/05/29 07:35:50;;;;;;;1.00;0.90;;;16.20;99.90;;;;;;5071734;28;20197;-62
2022/05/29 07:38:17;;;;;;;1.13;0.80;;;16.20;99.90;;;;;;5071522;28;20213;-62
2022/05/29 07:40:44;;;;;;;1.10;1.10;;;16.20;99.90;;;;;;5067574;28;20204;-61
2022/05/29 07:43:22;;;;;;;1.57;0.90;;;16.20;99.90;;;;;;5069721;28;20304;-62
2022/05/29 07:45:50;;;;;;;0.90;0.90;;;16.20;99.90;;;;;;5069352;28;20197;-62
2022/05/29 07:48:18;;;;;;;0.73;0.73;;;16.30;99.90;;;;;;5067349;28;20221;-62
2022/05/29 07:50:46;;;;;;;1.33;1.23;;;16.30;99.90;;;;;;5071345;28;20189;-62
2022/05/29 07:53:13;;;;;;;1.53;1.30;;;16.10;99.80;;;;;;5070870;28;20189;-62
2022/05/29 07:55:41;;;;;;;0.93;0.90;;;16.30;99.60;;;;;;5067406;28;20308;-63
2022/05/29 07:58:08;;;;;;;0.90;0.87;;;16.30;99.40;;;;;;5084896;28;20193;-63
2022/05/29 08:00:38;;;;;;;0.70;0.70;;;16.40;99.20;;;;;;5064855;28;20303;-63
2022/05/29 08:03:05;;;;;;;0.80;0.80;;;16.40;99.10;;;;;;5070044;28;20662;-63
2022/05/29 08:05:35;;;;;;;0.70;0.70;;;16.40;99.00;;;;;;5071293;28;20208;-63
2022/05/29 08:08:04;;;;;;;1.50;0.80;;;16.50;99.00;;;;;;5068911;28;20276;-64
2022/05/29 08:10:33;;;;;;;1.33;1.23;;;16.60;98.90;;;;;;5069741;28;20665;-64
2022/05/29 08:13:00;;;;;;;2.03;0.83;;;16.70;98.70;;;;;;5069351;28;20208;-64
2022/05/29 08:15:29;;;;;;;1.60;0.93;;;16.70;98.70;;;;;;5070904;28;20201;-64
2022/05/29 08:17:57;;;;;;;2.30;0.90;;;16.80;98.60;;;;;;5063159;28;20686;-63
2022/05/29 08:20:26;;;;;;;1.03;1.03;;;16.90;98.30;;;;;;5098163;27;20225;-63
2022/05/29 08:22:53;;;;;;;0.80;0.70;;;16.90;98.10;;;;;;5074629;28;20201;-64
2022/05/29 08:30:53;;;;;;;0.60;0.60;;;16.90;97.60;;;;;;5070457;28;20200;-64
2022/05/29 08:33:24;;;;;;;0.87;0.70;;;16.80;97.50;;;;;;5069353;28;21099;-64
2022/05/29 08:35:55;;;;;;;1.07;0.70;;;16.80;97.40;;;;;;5076565;28;20690;-64
2022/05/29 08:38:23;;;;;;;1.20;1.03;;;16.80;97.30;;;;;;5070132;28;20193;-63
2022/05/29 08:40:54;;;;;;;0.87;0.87;;;16.80;97.10;;;;;;5070106;28;20208;-64
2022/05/29 08:43:28;;;;;;;0.90;0.90;;;16.80;97.00;;;;;;5069645;28;20193;-63
2022/05/29 08:45:55;;;;;;;0.80;0.80;;;16.80;97.00;;;;;;5070731;28;20541;-63
2022/05/29 08:48:27;;;;;;;0.93;0.90;;;16.90;97.00;;;;;;5065500;28;20241;-62
2022/05/29 08:51:04;;;;;;;0.60;0.60;;;16.90;96.90;;;;;;5066869;28;20235;-64
2022/05/29 08:53:37;;;;;;;0.60;0.60;;;16.90;96.70;;;;;;5066977;28;20201;-64
2022/05/29 08:56:16;;;;;;;0.60;0.60;;;17.00;96.70;;;;;;5069242;28;20194;-64
2022/05/29 08:59:07;;;;;;;0.50;0.50;;;17.00;96.70;;;;;;5066387;28;20753;-63
2022/05/29 09:01:48;;;;;;;1.07;0.87;;;17.00;96.60;;;;;;5062880;28;20219;-64
2022/05/29 09:04:26;;;;;;;0.80;0.80;;;17.10;96.30;;;;;;5068403;28;20272;-63
2022/05/29 09:06:56;;;;;;;0.90;0.90;;;17.20;96.10;;;;;;5067394;28;20199;-64
2022/05/29 09:09:29;;;;;;;0.60;0.60;;;17.20;95.80;;;;;;5065385;28;20281;-63
2022/05/29 09:11:59;;;;;;;1.10;1.00;;;17.30;95.60;;;;;;5063167;28;20210;-63
2022/05/29 09:14:39;;;;;;;0.93;0.90;;;17.40;95.30;;;;;;5058591;28;20209;-62
2022/05/29 09:17:11;;;;;;;1.40;1.00;;;17.40;94.90;;;;;;5067949;28;20208;-64
2022/05/29 09:19:48;;;;;;;0.83;0.83;;;17.40;94.70;;;;;;5070726;28;20259;-63
2022/05/29 09:22:20;;;;;;;2.13;0.93;;;17.50;94.60;;;;;;5073655;28;20256;-63
2022/05/29 09:25:01;;;;;;;0.97;0.83;;;17.60;94.40;;;;;;5056606;28;20239;-63
2022/05/29 09:27:28;;;;;;;1.30;1.20;;;17.70;94.00;;;;;;5066191;28;20193;-63
2022/05/29 09:29:55;;;;;;;0.93;0.93;;;17.90;93.90;;;;;;5067034;28;20196;-62
2022/05/29 09:32:26;;;;;;;1.30;1.13;;;18.00;93.60;;;;;;5066937;28;20593;-63
2022/05/29 09:35:03;;;;;;;0.80;0.80;;;18.00;93.30;;;;;;5096410;28;20658;-61
2022/05/29 09:37:45;;;;;;;0.87;0.87;;;18.20;93.20;;;;;;5067091;28;20186;-62
2022/05/29 09:40:17;;;;;;;0.80;0.80;;;18.20;93.00;;;;;;5067369;28;20199;-63
2022/05/29 09:42:45;;;;;;;1.10;1.00;;;18.30;93.00;;;;;;5069684;28;20201;-63
2022/05/29 09:45:15;;;;;;;0.90;0.90;;;18.30;92.60;;;;;;5067666;28;20222;-63
2022/05/29 09:50:44;;;;;;;1.02;0.80;;;18.40;92.40;;;;;;5063412;28;20196;-62
2022/05/29 09:53:18;;;;;;;0.60;0.60;;;18.40;92.00;;;;;;5065886;28;20588;-62
2022/05/29 09:55:55;;;;;;;0.77;0.70;;;18.40;91.70;;;;;;5062622;28;20189;-62
2022/05/29 09:58:29;;;;;;;0.80;0.80;;;18.50;91.70;;;;;;5060328;28;20221;-62
2022/05/29 10:01:02;;;;;;;0.90;0.90;;;18.50;91.50;;;;;;5057428;28;20203;-62
2022/05/29 10:03:41;;;;;;;1.05;0.85;;;18.50;91.50;;;;;;5066246;28;20196;-63
2022/05/29 10:06:14;;;;;;;0.95;0.95;;;18.50;91.40;;;;;;5066204;28;20208;-63
2022/05/29 10:08:43;;;;;;;0.82;0.70;;;18.60;91.40;;;;;;5058040;28;20644;-63
2022/05/29 10:11:15;;;;;;;0.77;0.60;;;18.70;91.40;;;;;;5067377;28;20212;-62
2022/05/29 10:13:44;;;;;;;0.70;0.70;;;18.70;91.20;;;;;;5067264;28;20548;-62
2022/05/29 10:16:12;;;;;;;0.70;0.70;;;18.80;91.10;;;;;;5067755;28;20743;-62
2022/05/29 10:18:41;;;;;;;0.60;0.60;;;18.80;91.30;;;;;;5057032;28;20198;-62
2022/05/29 10:21:15;;;;;;;0.70;0.70;;;18.70;91.40;;;;;;5067211;28;20305;-62
2022/05/29 10:23:48;;;;;;;2.40;1.02;;;18.70;91.70;;;;;;5063529;28;20382;-62
2022/05/29 10:26:30;;;;;;;0.85;0.80;;;18.60;91.70;;;;;;5067427;28;20193;-62
2022/05/29 10:28:58;;;;;;;1.05;0.98;;;18.60;91.70;;;;;;5066839;28;20201;-63
2022/05/29 10:31:30;;;;;;;1.67;1.00;;;18.50;91.50;;;;;;5064964;28;20223;-62
2022/05/29 10:34:04;;;;;;;0.90;0.90;;;18.50;91.50;;;;;;5065855;28;20202;-62
2022/05/29 10:36:34;;;;;;;0.90;0.90;;;18.50;91.40;;;;;;5067832;28;20243;-62
2022/05/29 10:39:09;;;;;;;0.70;0.70;;;18.50;91.10;;;;;;5064762;28;20238;-63
2022/05/29 10:41:39;;;;;;;1.02;0.90;;;18.50;91.00;;;;;;5068525;28;20250;-63
2022/05/29 10:44:07;;;;;;;0.60;0.60;;;18.60;90.70;;;;;;5067999;28;20193;-62
2022/05/29 10:46:49;;;;;;;0.87;0.67;;;18.60;90.50;;;;;;5062526;28;20679;-62
2022/05/29 10:49:29;;;;;;;0.65;0.60;;;18.70;90.60;;;;;;5067425;28;20553;-62
2022/05/29 10:52:22;;;;;;;0.57;0.57;;;18.80;90.20;;;;;;5066403;28;20679;-62
2022/05/29 11:04:06;;;;;;;0.70;0.60;;;18.90;89.10;;;;;;5077392;28;20212;-63
2022/05/29 11:06:56;;;;;;;0.88;0.80;;;18.90;89.50;;;;;;5083494;28;20192;-61
2022/05/29 11:09:49;;;;;;;0.43;0.43;;;18.90;89.80;;;;;;5081940;28;20196;-63
2022/05/29 11:12:25;;;;;;;0.77;0.70;;;18.80;90.00;;;;;;5086102;28;20201;-64
2022/05/29 11:15:05;;;;;;;0.68;0.68;;;18.70;90.10;;;;;;5086239;28;20306;-63
2022/05/29 11:17:47;;;;;;;0.60;0.60;;;18.70;90.30;;;;;;5085205;28;20200;-62
2022/05/29 11:20:22;;;;;;;0.70;0.70;;;18.70;90.40;;;;;;5079613;28;20200;-63
2022/05/29 11:23:01;;;;;;;0.57;0.57;;;18.70;90.40;;;;;;5085066;28;20569;-63
2022/05/29 11:25:44;;;;;;;0.60;0.60;;;18.60;90.40;;;;;;5084519;28;20197;-60
2022/05/29 11:28:36;;;;;;;0.60;0.60;;;18.60;90.40;;;;;;5089624;28;20203;-60
2022/05/29 11:31:18;;;;;;;0.45;0.45;;;18.60;90.40;;;;;;5087207;28;20295;-60
2022/05/29 11:33:59;;;;;;;0.50;0.50;;;18.60;90.40;;;;;;5087636;28;20202;-60
2022/05/29 11:36:48;;;;;;;0.50;0.50;;;18.70;90.40;;;;;;5089181;28;20196;-60
2022/05/29 11:39:38;;;;;;;0.88;0.80;;;18.60;90.40;;;;;;5068865;28;20635;-60
2022/05/29 11:42:19;;;;;;;1.17;0.83;;;18.60;90.60;;;;;;5086066;28;20212;-60
2022/05/29 11:44:54;;;;;;;1.92;1.73;;;18.50;90.70;;;;;;5088498;28;20706;-45
2022/05/29 11:53:21;;;;;;;1.00;1.00;;;18.60;91.20;;;;;;5085693;28;20204;-48
2022/05/29 11:55:50;;;;;;;0.87;0.87;;;18.70;91.60;;;;;;5084635;28;20206;-50
2022/05/29 11:58:23;;;;;;;1.20;1.10;;;18.80;91.30;;;;;;5079244;28;20197;-51
2022/05/29 12:00:54;;;;;;;1.27;1.17;;;18.80;91.40;;;;;;5084876;28;20240;-48
2022/05/29 12:03:37;;;;;;;0.90;0.90;;;18.80;91.40;;;;;;5077225;28;20191;-48
2022/05/29 12:06:11;;;;;;;1.13;1.13;;;18.80;91.40;;;;;;5084767;28;20555;-45
2022/05/29 12:08:49;;;;;;;0.90;0.90;;;18.80;91.40;;;;;;5089659;28;20191;-47
2022/05/29 12:11:35;;;;;;;1.10;0.90;;;18.70;91.50;;;;;;5083773;28;20599;-46
2022/05/29 12:14:09;;;;;;;0.77;0.77;;;18.60;91.60;;;;;;5086621;28;20203;-49
2022/05/29 12:16:38;;;;;;;1.80;1.07;;;18.50;91.70;;;;;;5090237;28;20254;-49
2022/05/29 12:19:12;;;;;;;2.25;0.80;;;18.40;91.80;;;;;;5085239;28;20192;-42
2022/05/29 12:21:45;;;;;;;1.50;0.90;;;18.20;91.90;;;;;;5075695;28;20200;-47
2022/05/29 12:24:21;;;;;;;0.80;0.80;;;18.10;92.00;;;;;;5082795;28;20672;-44
2022/05/29 12:26:54;;;;;;;0.60;0.60;;;18.10;92.10;;;;;;5084861;28;20199;-48
2022/05/29 12:29:26;;;;;;;0.50;0.50;;;18.00;92.20;;;;;;5080201;28;20710;-46
2022/05/29 12:31:59;;;;;;;0.73;0.70;;;18.00;92.30;;;;;;5080071;28;20196;-48
2022/05/29 12:34:29;;;;;;;0.45;0.45;;;18.00;92.30;;;;;;5084987;28;20192;-48
2022/05/29 12:37:28;;;;;;;0.75;0.50;;;17.90;92.40;;;;;;5081542;28;20305;-47
2022/05/29 12:40:25;;;;;;;0.70;0.70;;;17.90;92.60;;;;;;5078199;28;20235;-44
2022/05/29 12:43:28;;;;;;;0.57;0.57;;;17.90;92.80;;;;;;5077599;28;20279;-48
2022/05/29 12:46:09;;;;;;;0.70;0.70;;;17.90;92.90;;;;;;5062930;28;20208;-46
2022/05/29 12:49:16;;;;;;;0.40;0.40;;;17.90;93.20;;;;;;5085638;28;20234;-46
2022/05/29 12:52:02;;;;;;;4.47;0.60;;;17.90;93.40;;;;;;5085431;28;20545;-47
2022/05/29 12:55:12;;;;;;;0.50;0.50;;;17.80;93.60;;;;;;5066128;28;20208;-49
2022/05/29 12:58:23;;;;;;;0.57;0.57;;;17.80;93.80;;;;;;5074661;28;20205;-48
2022/05/29 13:01:20;;;;;;;0.50;0.50;;;17.70;94.00;;;;;;5086856;28;20372;-46
2022/05/29 13:04:23;;;;;;;0.50;0.50;;;17.60;94.30;;;;;;5078411;28;20678;-43
2022/05/29 13:07:22;;;;;;;0.50;0.50;;;17.60;94.60;;;;;;5079606;28;20584;-49
2022/05/29 13:10:14;;;;;;;0.77;0.77;;;17.50;94.70;;;;;;5081537;28;20311;-47
2022/05/29 13:12:46;;;;;;;0.40;0.40;;;17.50;95.00;;;;;;5081845;28;20630;-51
2022/05/29 13:15:24;;;;;;;0.50;0.50;;;17.50;95.20;;;;;;5079591;28;20533;-45
2022/05/29 13:18:02;;;;;;;0.60;0.60;;;17.40;95.30;;;;;;5087144;28;20556;-43
2022/05/29 13:20:30;;;;;;;0.75;0.60;;;17.30;95.60;;;;;;5078096;28;20575;-52
2022/05/29 13:23:01;;;;;;;1.57;1.10;;;17.30;95.90;;;;;;5083111;28;20192;-48
2022/05/29 13:25:31;;;;;;;0.83;0.83;;;17.30;96.20;;;;;;5077449;28;20251;-50
2022/05/29 13:28:00;;;;;;;1.23;1.00;;;17.20;96.30;;;;;;5089708;28;20644;-46
2022/05/29 13:31:08;;;;;;;1.27;1.17;;;17.10;96.50;;;;;;5063844;28;20595;-44
2022/05/29 13:33:46;;;;;;;1.80;1.70;;;17.10;97.10;;;;;;5074279;28;20195;-49
2022/05/29 13:37:03;;;;;;;1.00;1.00;;;17.00;97.00;;;;;;5088738;28;20188;-45
2022/05/29 13:39:56;;;;;;;2.53;1.50;;;16.90;97.10;;;;;;5089774;28;20284;-47
2022/05/29 13:42:40;;;;;;;2.10;1.90;;;16.90;97.30;;;;;;5080566;28;20216;-44
2022/05/29 13:45:43;;;;;;;1.60;1.50;;;16.80;97.40;;;;;;5087849;28;20206;-43
2022/05/29 13:48:18;;;;;;;2.47;1.43;;;16.90;97.60;;;;;;5087213;28;20359;-46
2022/05/29 13:50:51;;;;;;;1.63;1.40;;;17.10;97.70;;;;;;5089751;28;20188;-45
2022/05/29 13:53:34;;;;;;;1.00;1.00;;;17.30;97.70;;;;;;5089851;28;20606;-45
2022/05/29 13:56:04;;;;;;;1.07;0.90;;;17.50;97.90;;;;;;5082791;28;20189;-44
2022/05/29 14:04:31;;;;;;;0.60;0.60;;;17.90;98.00;;;;;;5081441;28;20182;-43
2022/05/29 14:07:22;;;;;;;0.80;0.80;;;18.00;98.00;;;;;;5082694;28;20316;-48